Pagrindinis puslapis
METAR-TAF:

METAR-TAF

Oro uostai :

Kunmingas, Kinija

platuma: 25-01N, ilguma: 102-41E, Aukštis: 1892 m

Dabartinis oras

Ataskaita buvo paskelbta 58 minutes, ne 22:00 UTC
Vėjas 14 kt iš Pietvakarių
Temperatūra 13°C
Drėgmė 38%
Slėgis 1018 hPa
Matomumas 10 km arba daugiau
nėra debesų žemiau 1500 m ir nėra kamuolinių lietaus debesų

METAR: ZPPP 302200Z 22007MPS CAVOK 13/M01 Q1018 NOSIG

Laikas: 06:58 (22:58 UTC)

Prognozė

Ataskaita buvo paskelbta 7 valandos ir 55 minutes, ne 15:03 UTC
Prognozė galioja nuo 30 metu 18 UTC su 31 metu 18 UTC
Vėjas 14 kt iš Pietvakarių
Matomumas 10 km arba daugiau
Mažai debesys ne aukštis 2600 ft

TAF: ZPPP 301503Z 3018/3118 23007MPS 9999 FEW026 TX27/3108Z TN14/3023Z

Orai ataskaitas ir orų prognozės (METAR, TAF).

turimą stotys yra geltonos ir raudonos taškus žemėlapyje.

Perkelti pele per norėdami pamatyti stoties vardą.

Tada spustelėkite, norėdami matyti oro stebėjimo ir prognozės.

Norėdami pakeisti žemėlapį: spustelėkite ant žalios mygtukų su juodo kryžiaus žemyn,; žalią mygtuką su brūkšneliu, jei norite nutolinti; arba žalių rodyklių gretimoms žemėlapius.


METAR-TAF: